sensor_id;sensor_type;location;lat;lon;timestamp;pressure;altitude;pressure_sealevel;temperature;humidity
60609;BME280;48221;53.528;9.884;2022-10-16T00:01:29;100842.91;;;13.34;100.00
60609;BME280;48221;53.528;9.884;2022-10-16T00:03:56;100840.28;;;13.32;100.00
60609;BME280;48221;53.528;9.884;2022-10-16T00:06:23;100849.00;;;13.31;100.00
60609;BME280;48221;53.528;9.884;2022-10-16T00:08:49;100846.38;;;13.31;100.00
60609;BME280;48221;53.528;9.884;2022-10-16T00:11:18;100846.34;;;13.30;100.00
60609;BME280;48221;53.528;9.884;2022-10-16T00:13:45;100842.84;;;13.31;100.00
60609;BME280;48221;53.528;9.884;2022-10-16T00:16:12;100843.75;;;13.31;100.00
60609;BME280;48221;53.528;9.884;2022-10-16T00:18:38;100844.66;;;13.32;100.00
60609;BME280;48221;53.528;9.884;2022-10-16T00:21:13;100841.09;;;13.30;100.00
60609;BME280;48221;53.528;9.884;2022-10-16T00:23:38;100842.84;;;13.31;100.00
60609;BME280;48221;53.528;9.884;2022-10-16T00:26:08;100845.53;;;13.32;100.00
60609;BME280;48221;53.528;9.884;2022-10-16T00:28:34;100849.00;;;13.31;100.00
60609;BME280;48221;53.528;9.884;2022-10-16T00:31:03;100847.25;;;13.32;100.00
60609;BME280;48221;53.528;9.884;2022-10-16T00:33:29;100849.00;;;13.31;100.00
60609;BME280;48221;53.528;9.884;2022-10-16T00:35:57;100856.78;;;13.28;100.00
60609;BME280;48221;53.528;9.884;2022-10-16T00:38:23;100855.91;;;13.28;100.00
60609;BME280;48221;53.528;9.884;2022-10-16T00:40:48;100854.13;;;13.25;100.00
60609;BME280;48221;53.528;9.884;2022-10-16T00:43:45;100859.41;;;13.27;100.00
60609;BME280;48221;53.528;9.884;2022-10-16T00:46:13;100869.84;;;13.25;100.00
60609;BME280;48221;53.528;9.884;2022-10-16T00:48:40;100868.09;;;13.24;100.00
60609;BME280;48221;53.528;9.884;2022-10-16T00:51:06;100860.22;;;13.23;100.00
60609;BME280;48221;53.528;9.884;2022-10-16T00:53:32;100863.69;;;13.22;100.00
60609;BME280;48221;53.528;9.884;2022-10-16T00:55:58;100859.25;;;13.19;100.00
60609;BME280;48221;53.528;9.884;2022-10-16T00:58:24;100859.31;;;13.21;100.00
60609;BME280;48221;53.528;9.884;2022-10-16T01:00:49;100857.56;;;13.21;100.00
60609;BME280;48221;53.528;9.884;2022-10-16T01:03:34;100866.28;;;13.20;100.00
60609;BME280;48221;53.528;9.884;2022-10-16T01:06:08;100873.25;;;13.20;100.00
60609;BME280;48221;53.528;9.884;2022-10-16T01:08:49;100886.34;;;13.20;100.00
60609;BME280;48221;53.528;9.884;2022-10-16T01:11:22;100886.34;;;13.20;100.00
60609;BME280;48221;53.528;9.884;2022-10-16T01:13:54;100884.59;;;13.19;100.00
60609;BME280;48221;53.528;9.884;2022-10-16T01:19:12;100888.00;;;13.14;100.00
60609;BME280;48221;53.528;9.884;2022-10-16T01:21:42;100888.84;;;13.13;100.00
60609;BME280;48221;53.528;9.884;2022-10-16T01:24:31;100889.69;;;13.11;100.00
60609;BME280;48221;53.528;9.884;2022-10-16T01:27:09;100889.59;;;13.06;100.00
60609;BME280;48221;53.528;9.884;2022-10-16T01:30:04;100887.78;;;13.02;100.00
60609;BME280;48221;53.528;9.884;2022-10-16T01:37:47;100885.03;;;12.95;100.00
60609;BME280;48221;53.528;9.884;2022-10-16T01:40:16;100880.63;;;12.92;100.00
60609;BME280;48221;53.528;9.884;2022-10-16T01:42:52;100889.34;;;12.93;100.00
60609;BME280;48221;53.528;9.884;2022-10-16T01:45:19;100890.19;;;12.89;100.00
60609;BME280;48221;53.528;9.884;2022-10-16T01:47:46;100890.13;;;12.85;100.00
60609;BME280;48221;53.528;9.884;2022-10-16T01:50:14;100884.00;;;12.85;100.00
60609;BME280;48221;53.528;9.884;2022-10-16T01:52:43;100891.78;;;12.82;100.00
60609;BME280;48221;53.528;9.884;2022-10-16T01:55:12;100895.22;;;12.78;100.00
60609;BME280;48221;53.528;9.884;2022-10-16T01:57:42;100886.47;;;12.76;100.00
60609;BME280;48221;53.528;9.884;2022-10-16T02:00:11;100890.78;;;12.74;100.00
60609;BME280;48221;53.528;9.884;2022-10-16T02:02:39;100889.88;;;12.73;100.00
60609;BME280;48221;53.528;9.884;2022-10-16T02:07:45;100888.94;;;12.70;100.00
60609;BME280;48221;53.528;9.884;2022-10-16T02:10:12;100882.84;;;12.71;100.00
60609;BME280;48221;53.528;9.884;2022-10-16T02:12:40;100881.06;;;12.68;100.00
60609;BME280;48221;53.528;9.884;2022-10-16T02:15:07;100888.94;;;12.68;100.00
60609;BME280;48221;53.528;9.884;2022-10-16T02:17:33;100885.41;;;12.66;100.00
60609;BME280;48221;53.528;9.884;2022-10-16T02:19:59;100894.13;;;12.67;100.00
60609;BME280;48221;53.528;9.884;2022-10-16T02:22:36;100896.72;;;12.64;100.00
60609;BME280;48221;53.528;9.884;2022-10-16T02:27:57;100888.78;;;12.61;100.00
60609;BME280;48221;53.528;9.884;2022-10-16T02:30:36;100897.47;;;12.60;100.00
60609;BME280;48221;53.528;9.884;2022-10-16T02:33:06;100904.44;;;12.57;100.00
60609;BME280;48221;53.528;9.884;2022-10-16T02:35:33;100894.75;;;12.52;100.00
60609;BME280;48221;53.528;9.884;2022-10-16T02:37:59;100894.75;;;12.52;100.00
60609;BME280;48221;53.528;9.884;2022-10-16T02:40:25;100895.53;;;12.49;100.00
60609;BME280;48221;53.528;9.884;2022-10-16T02:42:53;100888.44;;;12.42;100.00
60609;BME280;48221;53.528;9.884;2022-10-16T02:45:19;100894.53;;;12.41;100.00
60609;BME280;48221;53.528;9.884;2022-10-16T02:47:45;100893.53;;;12.36;100.00
60609;BME280;48221;53.528;9.884;2022-10-16T02:50:10;100901.38;;;12.35;100.00
60609;BME280;48221;53.528;9.884;2022-10-16T02:52:36;100895.25;;;12.34;100.00
60609;BME280;48221;53.528;9.884;2022-10-16T02:55:02;100902.19;;;12.32;100.00
60609;BME280;48221;53.528;9.884;2022-10-16T02:57:28;100892.53;;;12.28;100.00
60609;BME280;48221;53.528;9.884;2022-10-16T02:59:54;100893.34;;;12.27;100.00
60609;BME280;48221;53.528;9.884;2022-10-16T03:02:19;100887.25;;;12.26;100.00
60609;BME280;48221;53.528;9.884;2022-10-16T03:04:45;100895.94;;;12.25;100.00
60609;BME280;48221;53.528;9.884;2022-10-16T03:07:10;100888.88;;;12.20;100.00
60609;BME280;48221;53.528;9.884;2022-10-16T03:09:35;100891.50;;;12.20;100.00
60609;BME280;48221;53.528;9.884;2022-10-16T03:12:01;100885.34;;;12.18;100.00
60609;BME280;48221;53.528;9.884;2022-10-16T03:14:26;100883.53;;;12.15;100.00
60609;BME280;48221;53.528;9.884;2022-10-16T03:16:51;100886.97;;;12.13;100.00
60609;BME280;48221;53.528;9.884;2022-10-16T03:19:17;100883.47;;;12.12;100.00
60609;BME280;48221;53.528;9.884;2022-10-16T03:21:43;100889.53;;;12.10;100.00
60609;BME280;48221;53.528;9.884;2022-10-16T03:24:08;100888.63;;;12.08;100.00
60609;BME280;48221;53.528;9.884;2022-10-16T03:26:33;100884.25;;;12.07;100.00
60609;BME280;48221;53.528;9.884;2022-10-16T03:28:59;100890.25;;;12.03;100.00
60609;BME280;48221;53.528;9.884;2022-10-16T03:31:24;100895.44;;;12.01;100.00
60609;BME280;48221;53.528;9.884;2022-10-16T03:33:49;100896.28;;;12.00;100.00
60609;BME280;48221;53.528;9.884;2022-10-16T03:36:15;100880.47;;;11.92;100.00
60609;BME280;48221;53.528;9.884;2022-10-16T03:38:40;100895.38;;;11.98;100.00
60609;BME280;48221;53.528;9.884;2022-10-16T03:41:06;100891.88;;;11.96;100.00
60609;BME280;48221;53.528;9.884;2022-10-16T03:43:32;100893.63;;;11.97;100.00
60609;BME280;48221;53.528;9.884;2022-10-16T03:45:58;100893.59;;;11.95;100.00
60609;BME280;48221;53.528;9.884;2022-10-16T03:48:23;100907.50;;;11.93;100.00
60609;BME280;48221;53.528;9.884;2022-10-16T03:50:48;100904.91;;;11.94;100.00
60609;BME280;48221;53.528;9.884;2022-10-16T03:53:15;100895.31;;;11.93;100.00
60609;BME280;48221;53.528;9.884;2022-10-16T03:55:42;100892.63;;;11.92;100.00
60609;BME280;48221;53.528;9.884;2022-10-16T03:58:07;100902.25;;;11.93;100.00
60609;BME280;48221;53.528;9.884;2022-10-16T04:00:33;100897.91;;;11.93;100.00
60609;BME280;48221;53.528;9.884;2022-10-16T04:02:59;100917.13;;;11.95;100.00
60609;BME280;48221;53.528;9.884;2022-10-16T04:05:25;100923.25;;;11.96;100.00
60609;BME280;48221;53.528;9.884;2022-10-16T04:07:50;100923.19;;;11.93;100.00
60609;BME280;48221;53.528;9.884;2022-10-16T04:10:15;100922.34;;;11.94;100.00
60609;BME280;48221;53.528;9.884;2022-10-16T04:12:41;100929.28;;;11.93;100.00
60609;BME280;48221;53.528;9.884;2022-10-16T04:15:06;100934.53;;;11.93;100.00
60609;BME280;48221;53.528;9.884;2022-10-16T04:17:32;100925.81;;;11.93;100.00
60609;BME280;48221;53.528;9.884;2022-10-16T04:19:57;100932.75;;;11.92;100.00
60609;BME280;48221;53.528;9.884;2022-10-16T04:22:22;100942.31;;;11.92;100.00
60609;BME280;48221;53.528;9.884;2022-10-16T04:24:48;100940.53;;;11.91;100.00
60609;BME280;48221;53.528;9.884;2022-10-16T04:27:13;100944.03;;;11.91;100.00
60609;BME280;48221;53.528;9.884;2022-10-16T04:29:38;100943.13;;;11.89;100.00
60609;BME280;48221;53.528;9.884;2022-10-16T04:32:04;100941.44;;;11.91;100.00
60609;BME280;48221;53.528;9.884;2022-10-16T04:34:29;100939.66;;;11.90;100.00
60609;BME280;48221;53.528;9.884;2022-10-16T04:36:54;100946.59;;;11.88;100.00
60609;BME280;48221;53.528;9.884;2022-10-16T04:39:19;100958.81;;;11.89;100.00
60609;BME280;48221;53.528;9.884;2022-10-16T04:41:45;100956.16;;;11.86;100.00
60609;BME280;48221;53.528;9.884;2022-10-16T04:44:10;100960.47;;;11.84;100.00
60609;BME280;48221;53.528;9.884;2022-10-16T04:46:35;100970.06;;;11.85;100.00
60609;BME280;48221;53.528;9.884;2022-10-16T04:49:01;100969.13;;;11.82;100.00
60609;BME280;48221;53.528;9.884;2022-10-16T04:51:26;100967.38;;;11.82;100.00
60609;BME280;48221;53.528;9.884;2022-10-16T04:53:53;100960.41;;;11.81;100.00
60609;BME280;48221;53.528;9.884;2022-10-16T04:56:19;100962.06;;;11.79;100.00
60609;BME280;48221;53.528;9.884;2022-10-16T04:58:45;100962.06;;;11.79;100.00
60609;BME280;48221;53.528;9.884;2022-10-16T05:01:11;100968.19;;;11.80;100.00
60609;BME280;48221;53.528;9.884;2022-10-16T05:03:36;100969.06;;;11.80;100.00
60609;BME280;48221;53.528;9.884;2022-10-16T05:06:01;100971.66;;;11.80;100.00
60609;BME280;48221;53.528;9.884;2022-10-16T05:08:27;100968.19;;;11.80;100.00
60609;BME280;48221;53.528;9.884;2022-10-16T05:10:52;100978.56;;;11.78;100.00
60609;BME280;48221;53.528;9.884;2022-10-16T05:13:17;100986.41;;;11.78;100.00
60609;BME280;48221;53.528;9.884;2022-10-16T05:15:47;100977.63;;;11.75;100.00
60609;BME280;48221;53.528;9.884;2022-10-16T05:18:13;100989.88;;;11.77;100.00
60609;BME280;48221;53.528;9.884;2022-10-16T05:20:38;100989.88;;;11.77;100.00
60609;BME280;48221;53.528;9.884;2022-10-16T05:23:03;100988.13;;;11.76;100.00
60609;BME280;48221;53.528;9.884;2022-10-16T05:25:29;100993.28;;;11.73;100.00
60609;BME280;48221;53.528;9.884;2022-10-16T05:27:54;100995.94;;;11.75;100.00
60609;BME280;48221;53.528;9.884;2022-10-16T05:30:19;100997.63;;;11.73;100.00
60609;BME280;48221;53.528;9.884;2022-10-16T05:32:49;100995.03;;;11.74;100.00
60609;BME280;48221;53.528;9.884;2022-10-16T05:35:15;101001.97;;;11.72;100.00
60609;BME280;48221;53.528;9.884;2022-10-16T05:37:41;100997.56;;;11.69;100.00
60609;BME280;48221;53.528;9.884;2022-10-16T05:40:07;100994.09;;;11.71;100.00
60609;BME280;48221;53.528;9.884;2022-10-16T05:42:32;100988.91;;;11.72;100.00
60609;BME280;48221;53.528;9.884;2022-10-16T05:44:57;100978.34;;;11.69;100.00
60609;BME280;48221;53.528;9.884;2022-10-16T05:47:23;100995.88;;;11.72;100.00
60609;BME280;48221;53.528;9.884;2022-10-16T05:49:48;100997.66;;;11.74;100.00
60609;BME280;48221;53.528;9.884;2022-10-16T05:52:13;100993.34;;;11.76;100.00
60609;BME280;48221;53.528;9.884;2022-10-16T05:54:38;100997.72;;;11.77;100.00
60609;BME280;48221;53.528;9.884;2022-10-16T05:57:04;101001.28;;;11.79;100.00
60609;BME280;48221;53.528;9.884;2022-10-16T05:59:31;101001.38;;;11.82;100.00
60609;BME280;48221;53.528;9.884;2022-10-16T06:01:56;101002.28;;;11.84;100.00
60609;BME280;48221;53.528;9.884;2022-10-16T06:04:21;101002.34;;;11.87;100.00
60609;BME280;48221;53.528;9.884;2022-10-16T06:06:47;101005.03;;;11.90;100.00
60609;BME280;48221;53.528;9.884;2022-10-16T06:09:12;100993.84;;;11.96;100.00
60609;BME280;48221;53.528;9.884;2022-10-16T06:11:37;101001.75;;;11.99;100.00
60609;BME280;48221;53.528;9.884;2022-10-16T06:14:03;100995.69;;;12.00;100.00
60609;BME280;48221;53.528;9.884;2022-10-16T06:16:35;101000.09;;;12.03;100.00
60609;BME280;48221;53.528;9.884;2022-10-16T06:19:02;101002.81;;;12.07;100.00
60609;BME280;48221;53.528;9.884;2022-10-16T06:21:29;101010.69;;;12.09;100.00
60609;BME280;48221;53.528;9.884;2022-10-16T06:23:57;101011.56;;;12.08;100.00
60609;BME280;48221;53.528;9.884;2022-10-16T06:26:25;101017.69;;;12.10;100.00
60609;BME280;48221;53.528;9.884;2022-10-16T06:28:51;101012.47;;;12.10;100.00
60609;BME280;48221;53.528;9.884;2022-10-16T06:31:16;101017.69;;;12.10;100.00
60609;BME280;48221;53.528;9.884;2022-10-16T06:33:42;101011.63;;;12.11;100.00
60609;BME280;48221;53.528;9.884;2022-10-16T06:36:13;101012.50;;;12.11;100.00
60609;BME280;48221;53.528;9.884;2022-10-16T06:38:39;101014.25;;;12.12;100.00
60609;BME280;48221;53.528;9.884;2022-10-16T06:41:06;101023.91;;;12.15;100.00
60609;BME280;48221;53.528;9.884;2022-10-16T06:43:32;101013.53;;;12.18;100.00
60609;BME280;48221;53.528;9.884;2022-10-16T06:46:01;101026.59;;;12.18;100.00
60609;BME280;48221;53.528;9.884;2022-10-16T06:48:27;101038.03;;;12.21;100.00
60609;BME280;48221;53.528;9.884;2022-10-16T06:51:04;101038.03;;;12.23;100.00
60609;BME280;48221;53.528;9.884;2022-10-16T06:53:33;101046.03;;;12.27;100.00
60609;BME280;48221;53.528;9.884;2022-10-16T06:56:13;101048.72;;;12.32;100.00
60609;BME280;48221;53.528;9.884;2022-10-16T06:58:40;101054.91;;;12.36;100.00
60609;BME280;48221;53.528;9.884;2022-10-16T07:01:05;101055.09;;;12.43;100.00
60609;BME280;48221;53.528;9.884;2022-10-16T07:03:30;101058.78;;;12.53;100.00
60609;BME280;48221;53.528;9.884;2022-10-16T07:05:56;101063.31;;;12.62;100.00
60609;BME280;48221;53.528;9.884;2022-10-16T07:08:22;101068.69;;;12.68;100.00
60609;BME280;48221;53.528;9.884;2022-10-16T07:10:47;101068.91;;;12.77;100.00
60609;BME280;48221;53.528;9.884;2022-10-16T07:13:13;101074.25;;;12.83;100.00
60609;BME280;48221;53.528;9.884;2022-10-16T07:15:40;101068.25;;;12.87;100.00
60609;BME280;48221;53.528;9.884;2022-10-16T07:18:05;101069.19;;;12.92;100.00
60609;BME280;48221;53.528;9.884;2022-10-16T07:20:31;101076.25;;;12.96;100.00
60609;BME280;48221;53.528;9.884;2022-10-16T07:22:56;101071.00;;;12.96;100.00
60609;BME280;48221;53.528;9.884;2022-10-16T07:25:21;101080.75;;;13.02;100.00
60609;BME280;48221;53.528;9.884;2022-10-16T07:27:47;101086.91;;;13.04;100.00
60609;BME280;48221;53.528;9.884;2022-10-16T07:30:12;101085.16;;;13.04;100.00
60609;BME280;48221;53.528;9.884;2022-10-16T07:32:37;101094.88;;;13.08;100.00
60609;BME280;48221;53.528;9.884;2022-10-16T07:35:03;101101.91;;;13.11;100.00
60609;BME280;48221;53.528;9.884;2022-10-16T07:37:29;101098.50;;;13.17;100.00
60609;BME280;48221;53.528;9.884;2022-10-16T07:39:54;101104.69;;;13.19;100.00
60609;BME280;48221;53.528;9.884;2022-10-16T07:42:19;101117.06;;;13.26;100.00
60609;BME280;48221;53.528;9.884;2022-10-16T07:44:45;101116.31;;;13.31;100.00
60609;BME280;48221;53.528;9.884;2022-10-16T07:47:10;101113.81;;;13.39;100.00
60609;BME280;48221;53.528;9.884;2022-10-16T07:49:35;101118.34;;;13.46;100.00
60609;BME280;48221;53.528;9.884;2022-10-16T07:52:01;101119.28;;;13.50;100.00
60609;BME280;48221;53.528;9.884;2022-10-16T07:54:26;101120.19;;;13.53;100.00
60609;BME280;48221;53.528;9.884;2022-10-16T07:56:51;101127.25;;;13.56;100.00
60609;BME280;48221;53.528;9.884;2022-10-16T07:59:17;101123.81;;;13.58;100.00
60609;BME280;48221;53.528;9.884;2022-10-16T08:01:42;101131.69;;;13.58;100.00
60609;BME280;48221;53.528;9.884;2022-10-16T08:04:08;101131.72;;;13.61;100.00
60609;BME280;48221;53.528;9.884;2022-10-16T08:06:38;101127.38;;;13.63;100.00
60609;BME280;48221;53.528;9.884;2022-10-16T08:09:04;101142.25;;;13.64;100.00
60609;BME280;48221;53.528;9.884;2022-10-16T08:11:29;101135.22;;;13.62;100.00
60609;BME280;48221;53.528;9.884;2022-10-16T08:13:55;101143.06;;;13.60;100.00
60609;BME280;48221;53.528;9.884;2022-10-16T08:16:21;101143.97;;;13.62;100.00
60609;BME280;48221;53.528;9.884;2022-10-16T08:18:46;101155.31;;;13.61;100.00
60609;BME280;48221;53.528;9.884;2022-10-16T08:21:16;101159.72;;;13.64;100.00
60609;BME280;48221;53.528;9.884;2022-10-16T08:23:42;101161.56;;;13.66;100.00
60609;BME280;48221;53.528;9.884;2022-10-16T08:26:09;101153.78;;;13.72;100.00
60609;BME280;48221;53.528;9.884;2022-10-16T08:28:35;101153.94;;;13.82;100.00
60609;BME280;48221;53.528;9.884;2022-10-16T08:31:12;101156.78;;;13.94;100.00
60609;BME280;48221;53.528;9.884;2022-10-16T08:33:39;101156.97;;;14.03;100.00
60609;BME280;48221;53.528;9.884;2022-10-16T08:36:06;101157.03;;;14.09;100.00
60609;BME280;48221;53.528;9.884;2022-10-16T08:38:41;101153.69;;;14.16;100.00
60609;BME280;48221;53.528;9.884;2022-10-16T08:44:10;101160.03;;;14.30;100.00
60609;BME280;48221;53.528;9.884;2022-10-16T08:46:51;101166.28;;;14.39;100.00
60609;BME280;48221;53.528;9.884;2022-10-16T08:49:20;101159.34;;;14.44;100.00
60609;BME280;48221;53.528;9.884;2022-10-16T08:51:51;101164.81;;;14.54;100.00
60609;BME280;48221;53.528;9.884;2022-10-16T08:54:30;101171.94;;;14.62;100.00
60609;BME280;48221;53.528;9.884;2022-10-16T08:57:17;101176.41;;;14.69;100.00
60609;BME280;48221;53.528;9.884;2022-10-16T08:59:43;101171.25;;;14.76;100.00
60609;BME280;48221;53.528;9.884;2022-10-16T09:05:01;101187.22;;;14.92;100.00
60609;BME280;48221;53.528;9.884;2022-10-16T09:13:26;101191.91;;;15.14;100.00
60609;BME280;48221;53.528;9.884;2022-10-16T09:16:14;101200.75;;;15.19;100.00
60609;BME280;48221;53.528;9.884;2022-10-16T09:18:51;101195.59;;;15.27;100.00
60609;BME280;48221;53.528;9.884;2022-10-16T09:21:23;101194.78;;;15.31;100.00
60609;BME280;48221;53.528;9.884;2022-10-16T09:23:50;101209.75;;;15.39;100.00
60609;BME280;48221;53.528;9.884;2022-10-16T09:26:16;101220.38;;;15.45;100.00
60609;BME280;48221;53.528;9.884;2022-10-16T09:28:43;101222.22;;;15.53;100.00
60609;BME280;48221;53.528;9.884;2022-10-16T09:31:19;101224.13;;;15.63;100.00
60609;BME280;48221;53.528;9.884;2022-10-16T09:33:50;101219.78;;;15.68;100.00
60609;BME280;48221;53.528;9.884;2022-10-16T09:36:18;101217.19;;;15.71;100.00
60609;BME280;48221;53.528;9.884;2022-10-16T09:38:44;101213.75;;;15.75;100.00
60609;BME280;48221;53.528;9.884;2022-10-16T09:41:18;101209.31;;;15.74;100.00
60609;BME280;48221;53.528;9.884;2022-10-16T09:43:59;101211.94;;;15.74;100.00
60609;BME280;48221;53.528;9.884;2022-10-16T09:46:36;101211.13;;;15.78;100.00
60609;BME280;48221;53.528;9.884;2022-10-16T09:49:25;101221.69;;;15.81;100.00
60609;BME280;48221;53.528;9.884;2022-10-16T09:51:51;101227.84;;;15.83;100.00
60609;BME280;48221;53.528;9.884;2022-10-16T09:54:19;101230.53;;;15.88;100.00
60609;BME280;48221;53.528;9.884;2022-10-16T09:56:44;101235.84;;;15.91;100.00
60609;BME280;48221;53.528;9.884;2022-10-16T09:59:13;101238.47;;;15.92;100.00
60609;BME280;48221;53.528;9.884;2022-10-16T10:01:48;101240.25;;;15.95;100.00
60609;BME280;48221;53.528;9.884;2022-10-16T10:04:14;101256.13;;;16.02;100.00
60609;BME280;48221;53.528;9.884;2022-10-16T10:06:52;101258.78;;;16.04;100.00
60609;BME280;48221;53.528;9.884;2022-10-16T10:09:37;101250.91;;;16.05;100.00
60609;BME280;48221;53.528;9.884;2022-10-16T10:12:04;101250.03;;;16.08;100.00
60609;BME280;48221;53.528;9.884;2022-10-16T10:14:34;101263.25;;;16.10;100.00
60609;BME280;48221;53.528;9.884;2022-10-16T10:19:51;101256.22;;;16.10;100.00
60609;BME280;48221;53.528;9.884;2022-10-16T10:25:12;101269.53;;;16.25;100.00
60609;BME280;48221;53.528;9.884;2022-10-16T10:35:16;101260.13;;;16.53;100.00
60609;BME280;48221;53.528;9.884;2022-10-16T10:37:54;101266.44;;;16.68;100.00
60609;BME280;48221;53.528;9.884;2022-10-16T10:40:38;101268.25;;;16.78;100.00
60609;BME280;48221;53.528;9.884;2022-10-16T10:43:23;101275.38;;;16.89;100.00
60609;BME280;48221;53.528;9.884;2022-10-16T10:45:58;101268.38;;;16.91;100.00
60609;BME280;48221;53.528;9.884;2022-10-16T10:51:04;101276.38;;;17.04;100.00
60609;BME280;48221;53.528;9.884;2022-10-16T10:53:41;101283.41;;;17.08;100.00
60609;BME280;48221;53.528;9.884;2022-10-16T11:05:15;101270.22;;;17.08;100.00
60609;BME280;48221;53.528;9.884;2022-10-16T11:07:57;101267.59;;;17.12;100.00
60609;BME280;48221;53.528;9.884;2022-10-16T11:10:32;101272.94;;;17.18;100.00
60609;BME280;48221;53.528;9.884;2022-10-16T11:15:48;101274.75;;;17.32;100.00
60609;BME280;48221;53.528;9.884;2022-10-16T11:18:21;101273.88;;;17.34;100.00
60609;BME280;48221;53.528;9.884;2022-10-16T11:20:52;101284.50;;;17.43;100.00
60609;BME280;48221;53.528;9.884;2022-10-16T11:23:29;101290.66;;;17.45;100.00
60609;BME280;48221;53.528;9.884;2022-10-16T11:26:00;101297.69;;;17.43;100.00
60609;BME280;48221;53.528;9.884;2022-10-16T11:28:31;101291.53;;;17.43;100.00
60609;BME280;48221;53.528;9.884;2022-10-16T11:31:07;101302.16;;;17.54;100.00
60609;BME280;48221;53.528;9.884;2022-10-16T11:33:41;101303.91;;;17.59;100.00
60609;BME280;48221;53.528;9.884;2022-10-16T11:36:21;101308.34;;;17.65;100.00
60609;BME280;48221;53.528;9.884;2022-10-16T11:39:19;101306.69;;;17.73;100.00
60609;BME280;48221;53.528;9.884;2022-10-16T11:47:39;101325.00;;;17.55;100.00
60609;BME280;48221;53.528;9.884;2022-10-16T11:50:13;101341.78;;;17.67;100.00
60609;BME280;48221;53.528;9.884;2022-10-16T11:52:59;101327.69;;;17.62;100.00
60609;BME280;48221;53.528;9.884;2022-10-16T11:55:40;101337.38;;;17.68;100.00
60609;BME280;48221;53.528;9.884;2022-10-16T11:58:13;101336.59;;;17.73;100.00
60609;BME280;48221;53.528;9.884;2022-10-16T12:03:38;101339.09;;;17.58;100.00
60609;BME280;48221;53.528;9.884;2022-10-16T12:06:40;101345.22;;;17.51;100.00
60609;BME280;48221;53.528;9.884;2022-10-16T12:09:36;101341.66;;;17.40;100.00
60609;BME280;48221;53.528;9.884;2022-10-16T12:11:59;101357.47;;;17.43;100.00
60609;BME280;48221;53.528;9.884;2022-10-16T12:19:41;101366.56;;;17.94;100.00
60609;BME280;48221;53.528;9.884;2022-10-16T12:22:15;101374.63;;;18.24;100.00
60609;BME280;48221;53.528;9.884;2022-10-16T12:24:50;101365.03;;;18.57;100.00
60609;BME280;48221;53.528;9.884;2022-10-16T12:27:32;101365.97;;;18.83;84.21
60609;BME280;48221;53.528;9.884;2022-10-16T12:30:03;101374.78;;;18.93;84.59
60609;BME280;48221;53.528;9.884;2022-10-16T12:32:33;101378.31;;;18.78;84.65
60609;BME280;48221;53.528;9.884;2022-10-16T12:35:01;101384.44;;;18.73;81.26
60609;BME280;48221;53.528;9.884;2022-10-16T12:37:37;101377.34;;;18.62;78.46
60609;BME280;48221;53.528;9.884;2022-10-16T12:40:29;101379.13;;;18.57;78.10
60609;BME280;48221;53.528;9.884;2022-10-16T12:42:55;101382.59;;;18.40;76.23
60609;BME280;48221;53.528;9.884;2022-10-16T12:45:31;101389.63;;;18.34;77.26
60609;BME280;48221;53.528;9.884;2022-10-16T12:47:59;101390.47;;;18.20;74.83
60609;BME280;48221;53.528;9.884;2022-10-16T12:50:33;101398.31;;;18.00;76.42
60609;BME280;48221;53.528;9.884;2022-10-16T12:53:00;101400.06;;;17.96;77.15
60609;BME280;48221;53.528;9.884;2022-10-16T12:55:26;101395.63;;;17.92;79.00
60609;BME280;48221;53.528;9.884;2022-10-16T13:00:57;101402.59;;;17.81;80.01
60609;BME280;48221;53.528;9.884;2022-10-16T13:12:10;101418.56;;;18.05;79.72
60609;BME280;48221;53.528;9.884;2022-10-16T13:27:59;101434.38;;;17.99;74.32
60609;BME280;48221;53.528;9.884;2022-10-16T13:30:28;101438.78;;;18.02;73.99
60609;BME280;48221;53.528;9.884;2022-10-16T13:33:00;101451.06;;;17.91;74.84
60609;BME280;48221;53.528;9.884;2022-10-16T13:35:28;101455.50;;;18.01;75.67
60609;BME280;48221;53.528;9.884;2022-10-16T13:38:15;101450.25;;;18.04;76.62
60609;BME280;48221;53.528;9.884;2022-10-16T13:43:20;101458.28;;;18.22;77.54
60609;BME280;48221;53.528;9.884;2022-10-16T13:46:14;101456.50;;;18.24;73.80
60609;BME280;48221;53.528;9.884;2022-10-16T13:48:40;101461.78;;;18.18;72.04
60609;BME280;48221;53.528;9.884;2022-10-16T13:51:16;101463.56;;;18.19;72.66
60609;BME280;48221;53.528;9.884;2022-10-16T13:53:42;101459.16;;;18.23;73.45
60609;BME280;48221;53.528;9.884;2022-10-16T13:56:16;101464.44;;;18.26;73.89
60609;BME280;48221;53.528;9.884;2022-10-16T13:58:42;101476.81;;;18.33;74.05
60609;BME280;48221;53.528;9.884;2022-10-16T14:01:41;101480.34;;;18.40;75.08
60609;BME280;48221;53.528;9.884;2022-10-16T14:04:09;101481.28;;;18.48;73.95
60609;BME280;48221;53.528;9.884;2022-10-16T14:06:36;101484.03;;;18.68;74.45
60609;BME280;48221;53.528;9.884;2022-10-16T14:09:06;101482.28;;;18.80;72.74
60609;BME280;48221;53.528;9.884;2022-10-16T14:11:36;101491.16;;;19.05;73.50
60609;BME280;48221;53.528;9.884;2022-10-16T14:14:04;101500.00;;;19.12;71.66
60609;BME280;48221;53.528;9.884;2022-10-16T14:16:31;101499.13;;;19.19;71.86
60609;BME280;48221;53.528;9.884;2022-10-16T14:19:00;101507.06;;;19.17;71.27
60609;BME280;48221;53.528;9.884;2022-10-16T14:21:26;101506.16;;;19.17;71.53
60609;BME280;48221;53.528;9.884;2022-10-16T14:23:52;101512.34;;;19.13;72.30
60609;BME280;48221;53.528;9.884;2022-10-16T14:26:21;101513.22;;;19.00;71.02